Time;durP1;ratioP1;P1;durP2;ratioP2;P2;SDS_P1;SDS_P2;PMS_P1;PMS_P2;Temp;Humidity;BMP_temperature;BMP_pressure;BME280_temperature;BME280_humidity;BME280_pressure;Samples;Min_cycle;Max_cycle;Signal;HPM_P1;HPM_P2
2022/04/20 00:01:08;;;;;;;5.13;3.53;;;;;;;;;;4973537;28;20436;-50
2022/04/20 00:03:48;;;;;;;4.13;2.97;;;;;;;;;;4981729;28;20453;-50
2022/04/20 00:06:25;;;;;;;4.73;3.27;;;;;;;;;;4970792;28;20464;-50
2022/04/20 00:08:56;;;;;;;7.03;4.17;;;;;;;;;;4979972;28;20448;-50
2022/04/20 00:11:38;;;;;;;4.00;2.97;;;;;;;;;;4965110;28;20476;-52
2022/04/20 00:14:04;;;;;;;3.50;3.20;;;;;;;;;;4981219;28;20452;-50
2022/04/20 00:16:56;;;;;;;6.03;3.93;;;;;;;;;;4979561;28;20477;-51
2022/04/20 00:19:27;;;;;;;7.57;3.80;;;;;;;;;;4980958;28;20471;-50
2022/04/20 00:21:53;;;;;;;3.80;3.17;;;;;;;;;;4960414;28;20894;-51
2022/04/20 00:24:19;;;;;;;4.03;3.70;;;;;;;;;;4986534;28;20449;-50
2022/04/20 00:26:45;;;;;;;3.87;3.47;;;;;;;;;;4983754;28;20545;-50
2022/04/20 00:29:11;;;;;;;5.97;3.43;;;;;;;;;;4985464;28;20799;-50
2022/04/20 00:31:41;;;;;;;5.00;3.53;;;;;;;;;;4980274;28;20952;-50
2022/04/20 00:34:07;;;;;;;4.40;3.20;;;;;;;;;;4981743;28;20511;-50
2022/04/20 00:36:59;;;;;;;4.60;3.40;;;;;;;;;;4979935;28;21014;-50
2022/04/20 00:39:27;;;;;;;4.00;3.47;;;;;;;;;;4968127;28;20544;-50
2022/04/20 00:42:19;;;;;;;4.00;3.30;;;;;;;;;;4983398;28;20544;-50
2022/04/20 00:44:55;;;;;;;4.20;3.30;;;;;;;;;;4973332;28;20465;-51
2022/04/20 00:50:25;;;;;;;5.10;3.70;;;;;;;;;;4953981;28;20522;-50
2022/04/20 00:53:24;;;;;;;6.23;4.00;;;;;;;;;;4963500;28;22692;-50
2022/04/20 00:55:51;;;;;;;4.43;3.97;;;;;;;;;;4989154;28;20440;-50
2022/04/20 00:58:17;;;;;;;3.90;3.60;;;;;;;;;;4973776;28;20453;-49
2022/04/20 01:00:43;;;;;;;4.40;3.93;;;;;;;;;;4980973;28;20444;-49
2022/04/20 01:03:09;;;;;;;4.80;3.60;;;;;;;;;;4959607;28;20452;-51
2022/04/20 01:05:55;;;;;;;4.40;3.97;;;;;;;;;;4985254;28;20433;-54
2022/04/20 01:08:21;;;;;;;9.97;4.43;;;;;;;;;;4990147;28;20449;-50
2022/04/20 01:10:47;;;;;;;5.50;3.80;;;;;;;;;;4982372;28;20437;-52
2022/04/20 01:13:13;;;;;;;3.60;3.30;;;;;;;;;;4979127;28;20994;-49
2022/04/20 01:15:39;;;;;;;6.80;3.67;;;;;;;;;;4983494;28;20445;-49
2022/04/20 01:18:15;;;;;;;4.93;3.87;;;;;;;;;;4951813;28;20473;-51
2022/04/20 01:20:41;;;;;;;6.20;4.27;;;;;;;;;;4979450;28;20440;-49
2022/04/20 01:23:07;;;;;;;6.90;4.73;;;;;;;;;;4961231;28;20438;-49
2022/04/20 01:25:33;;;;;;;7.63;4.60;;;;;;;;;;4984592;28;20472;-49
2022/04/20 01:28:00;;;;;;;5.17;4.20;;;;;;;;;;4981389;28;20551;-50
2022/04/20 01:30:26;;;;;;;5.13;3.60;;;;;;;;;;4977019;28;20819;-50
2022/04/20 01:32:52;;;;;;;5.80;3.50;;;;;;;;;;4962548;28;21003;-50
2022/04/20 01:35:18;;;;;;;6.70;6.00;;;;;;;;;;4981943;28;20441;-50
2022/04/20 01:37:43;;;;;;;5.93;4.23;;;;;;;;;;4977781;28;20248;-51
2022/04/20 01:40:10;;;;;;;6.60;3.90;;;;;;;;;;4979693;28;20460;-50
2022/04/20 01:42:50;;;;;;;5.27;4.13;;;;;;;;;;4966680;28;20438;-50
2022/04/20 01:45:18;;;;;;;5.13;4.00;;;;;;;;;;4979735;28;20464;-51
2022/04/20 01:48:02;;;;;;;6.00;3.83;;;;;;;;;;4975570;28;20488;-50
2022/04/20 01:50:32;;;;;;;7.83;3.77;;;;;;;;;;4974041;28;20461;-50
2022/04/20 01:52:58;;;;;;;3.37;3.10;;;;;;;;;;4958098;28;20529;-51
2022/04/20 01:55:24;;;;;;;6.70;4.70;;;;;;;;;;4980387;28;20460;-49
2022/04/20 01:57:52;;;;;;;5.97;4.63;;;;;;;;;;4959950;28;20836;-50
2022/04/20 02:00:18;;;;;;;8.20;3.60;;;;;;;;;;4977246;28;20445;-50
2022/04/20 02:02:44;;;;;;;5.10;3.47;;;;;;;;;;4976428;28;20448;-50
2022/04/20 02:05:11;;;;;;;4.50;4.10;;;;;;;;;;4983891;28;20477;-50
2022/04/20 02:07:57;;;;;;;5.00;3.57;;;;;;;;;;4963390;28;20445;-50
2022/04/20 02:10:24;;;;;;;4.37;3.70;;;;;;;;;;4983598;28;20465;-51
2022/04/20 02:12:55;;;;;;;4.17;3.77;;;;;;;;;;4952192;28;21336;-50
2022/04/20 02:15:24;;;;;;;3.73;3.00;;;;;;;;;;4976210;28;20461;-50
2022/04/20 02:17:50;;;;;;;4.97;3.70;;;;;;;;;;4980629;28;20639;-50
2022/04/20 02:20:16;;;;;;;5.23;3.43;;;;;;;;;;4985414;28;20807;-49
2022/04/20 02:22:56;;;;;;;3.87;3.50;;;;;;;;;;4976881;28;20896;-49
2022/04/20 02:25:22;;;;;;;5.93;4.03;;;;;;;;;;4925692;28;20437;-50
2022/04/20 02:27:48;;;;;;;6.07;3.67;;;;;;;;;;4977277;28;21081;-51
2022/04/20 02:30:14;;;;;;;7.77;4.83;;;;;;;;;;4977218;28;20480;-50
2022/04/20 02:32:40;;;;;;;3.97;3.57;;;;;;;;;;4980035;28;20469;-49
2022/04/20 02:35:06;;;;;;;4.93;3.93;;;;;;;;;;4968561;28;20451;-49
2022/04/20 02:37:33;;;;;;;4.70;3.90;;;;;;;;;;4984253;28;20568;-49
2022/04/20 02:39:59;;;;;;;4.63;4.17;;;;;;;;;;4962933;28;20437;-50
2022/04/20 02:42:25;;;;;;;4.60;3.90;;;;;;;;;;4980666;28;20432;-49
2022/04/20 02:44:51;;;;;;;6.73;4.17;;;;;;;;;;4945431;28;20453;-49
2022/04/20 02:47:17;;;;;;;4.10;3.70;;;;;;;;;;4977619;28;20445;-50
2022/04/20 02:49:43;;;;;;;4.17;3.47;;;;;;;;;;4976280;28;20444;-49
2022/04/20 02:52:09;;;;;;;5.50;4.00;;;;;;;;;;4977878;28;20931;-50
2022/04/20 02:54:35;;;;;;;6.20;4.40;;;;;;;;;;4932133;28;20437;-52
2022/04/20 02:57:01;;;;;;;4.23;3.83;;;;;;;;;;4983168;28;20493;-51
2022/04/20 02:59:27;;;;;;;4.67;4.13;;;;;;;;;;4986738;28;20938;-51
2022/04/20 03:01:53;;;;;;;4.57;3.80;;;;;;;;;;4966097;28;20540;-51
2022/04/20 03:04:20;;;;;;;6.33;4.23;;;;;;;;;;4974975;28;20488;-51
2022/04/20 03:06:46;;;;;;;6.67;3.87;;;;;;;;;;4976831;28;20838;-51
2022/04/20 03:09:12;;;;;;;4.97;4.47;;;;;;;;;;4975949;28;20448;-51
2022/04/20 03:11:40;;;;;;;4.17;3.57;;;;;;;;;;4978590;28;20469;-51
2022/04/20 03:14:09;;;;;;;6.37;4.40;;;;;;;;;;4944455;28;22755;-52
2022/04/20 03:16:35;;;;;;;4.83;3.67;;;;;;;;;;4983467;28;20468;-51
2022/04/20 03:19:02;;;;;;;5.00;3.77;;;;;;;;;;4978967;28;20440;-52
2022/04/20 03:21:28;;;;;;;4.33;3.93;;;;;;;;;;4979284;28;20445;-51
2022/04/20 03:24:30;;;;;;;3.80;3.30;;;;;;;;;;4944055;28;20448;-50
2022/04/20 03:26:59;;;;;;;6.13;4.23;;;;;;;;;;4982916;28;20469;-50
2022/04/20 03:29:26;;;;;;;4.63;4.07;;;;;;;;;;4989812;28;20447;-51
2022/04/20 03:31:53;;;;;;;4.83;4.33;;;;;;;;;;4980691;28;20532;-50
2022/04/20 03:34:19;;;;;;;10.07;4.90;;;;;;;;;;4955045;28;21676;-49
2022/04/20 03:36:46;;;;;;;4.47;4.07;;;;;;;;;;4979729;28;20962;-50
2022/04/20 03:39:13;;;;;;;6.77;3.40;;;;;;;;;;4979065;28;21585;-50
2022/04/20 03:41:39;;;;;;;5.50;3.47;;;;;;;;;;4970723;28;20441;-51
2022/04/20 03:44:39;;;;;;;4.50;3.53;;;;;;;;;;4977695;28;21290;-50
2022/04/20 03:47:17;;;;;;;5.37;4.03;;;;;;;;;;4964437;28;20536;-50
2022/04/20 03:49:43;;;;;;;3.70;3.30;;;;;;;;;;4976342;28;20497;-50
2022/04/20 03:52:09;;;;;;;4.77;3.83;;;;;;;;;;4978976;28;20441;-49
2022/04/20 03:54:58;;;;;;;3.53;3.20;;;;;;;;;;4977407;28;20480;-50
2022/04/20 03:57:35;;;;;;;4.40;3.60;;;;;;;;;;4987064;28;20476;-51
2022/04/20 04:00:03;;;;;;;6.77;3.83;;;;;;;;;;5001347;28;20443;-51
2022/04/20 04:02:30;;;;;;;4.00;3.60;;;;;;;;;;4977212;28;20437;-51
2022/04/20 04:04:56;;;;;;;5.10;4.60;;;;;;;;;;4995847;28;20477;-52
2022/04/20 04:07:24;;;;;;;4.13;3.30;;;;;;;;;;4954693;28;20432;-50
2022/04/20 04:09:51;;;;;;;4.33;3.93;;;;;;;;;;4988784;28;20476;-51
2022/04/20 04:12:22;;;;;;;5.50;4.67;;;;;;;;;;4978392;28;20560;-51
2022/04/20 04:14:49;;;;;;;6.50;4.17;;;;;;;;;;4982062;28;20452;-49
2022/04/20 04:17:15;;;;;;;9.77;5.90;;;;;;;;;;4944190;28;20490;-50
2022/04/20 04:19:41;;;;;;;4.73;3.77;;;;;;;;;;4987309;28;20500;-50
2022/04/20 04:22:07;;;;;;;6.73;3.80;;;;;;;;;;4976334;28;20497;-49
2022/04/20 04:24:36;;;;;;;8.30;4.93;;;;;;;;;;4989432;28;20448;-49
2022/04/20 04:27:03;;;;;;;5.90;3.67;;;;;;;;;;4941332;28;20457;-48
2022/04/20 04:29:32;;;;;;;4.73;4.33;;;;;;;;;;4987277;28;20566;-50
2022/04/20 04:31:59;;;;;;;5.30;4.80;;;;;;;;;;4979559;28;20467;-50
2022/04/20 04:34:25;;;;;;;7.10;4.10;;;;;;;;;;4975234;28;20441;-50
2022/04/20 04:36:54;;;;;;;5.80;4.43;;;;;;;;;;4973766;28;20913;-50
2022/04/20 04:39:21;;;;;;;7.87;5.30;;;;;;;;;;4989153;28;20512;-50
2022/04/20 04:41:48;;;;;;;8.33;5.00;;;;;;;;;;4981198;28;20503;-50
2022/04/20 04:44:14;;;;;;;6.50;4.70;;;;;;;;;;4969644;28;21447;-50
2022/04/20 04:49:25;;;;;;;4.27;3.87;;;;;;;;;;4983978;28;21016;-49
2022/04/20 04:51:51;;;;;;;6.10;4.87;;;;;;;;;;4953499;28;20446;-50
2022/04/20 04:54:17;;;;;;;8.77;4.70;;;;;;;;;;4980949;28;20563;-50
2022/04/20 04:56:43;;;;;;;5.87;4.40;;;;;;;;;;4982854;28;20549;-50
2022/04/20 04:59:09;;;;;;;6.40;3.80;;;;;;;;;;4986051;28;20451;-50
2022/04/20 05:01:35;;;;;;;5.30;4.50;;;;;;;;;;4957932;28;20453;-49
2022/04/20 05:04:01;;;;;;;13.50;4.73;;;;;;;;;;4977913;28;20977;-49
2022/04/20 05:06:27;;;;;;;5.70;4.03;;;;;;;;;;4969083;28;20501;-49
2022/04/20 05:08:53;;;;;;;6.70;5.17;;;;;;;;;;4977164;28;20437;-49
2022/04/20 05:11:20;;;;;;;9.00;5.00;;;;;;;;;;4982113;28;20447;-49
2022/04/20 05:13:46;;;;;;;7.07;4.83;;;;;;;;;;4983358;28;20442;-49
2022/04/20 05:16:12;;;;;;;7.87;4.03;;;;;;;;;;4980435;28;20452;-50
2022/04/20 05:18:38;;;;;;;5.50;4.47;;;;;;;;;;4965878;28;20449;-49
2022/04/20 05:21:04;;;;;;;6.60;5.00;;;;;;;;;;4977572;28;20981;-49
2022/04/20 05:23:30;;;;;;;17.23;5.53;;;;;;;;;;4966795;28;20679;-50
2022/04/20 05:25:56;;;;;;;5.80;4.97;;;;;;;;;;4972407;28;20571;-49
2022/04/20 05:28:25;;;;;;;9.33;6.07;;;;;;;;;;4980600;28;20449;-50
2022/04/20 05:30:51;;;;;;;14.90;5.70;;;;;;;;;;4993630;28;20437;-51
2022/04/20 05:33:38;;;;;;;10.70;5.80;;;;;;;;;;4970415;28;20475;-51
2022/04/20 05:36:06;;;;;;;7.73;6.03;;;;;;;;;;4977774;28;20460;-52
2022/04/20 05:44:02;;;;;;;5.87;5.00;;;;;;;;;;4979093;28;20468;-54
2022/04/20 05:46:28;;;;;;;9.27;4.90;;;;;;;;;;4982777;28;22758;-57
2022/04/20 05:48:55;;;;;;;5.90;4.63;;;;;;;;;;4992460;28;20560;-50
2022/04/20 05:51:21;;;;;;;6.40;4.90;;;;;;;;;;4984886;28;20441;-50
2022/04/20 05:53:47;;;;;;;6.20;3.80;;;;;;;;;;4970385;28;20449;-49
2022/04/20 05:56:13;;;;;;;5.20;4.37;;;;;;;;;;4972577;28;20456;-50
2022/04/20 05:58:39;;;;;;;5.00;4.50;;;;;;;;;;4949321;28;20438;-50
2022/04/20 06:01:05;;;;;;;6.93;4.77;;;;;;;;;;4976805;28;20935;-50
2022/04/20 06:03:45;;;;;;;4.50;4.10;;;;;;;;;;4947567;28;20484;-50
2022/04/20 06:06:27;;;;;;;4.97;3.70;;;;;;;;;;4969828;28;20751;-50
2022/04/20 06:08:56;;;;;;;6.43;3.70;;;;;;;;;;4982099;28;20449;-50
2022/04/20 06:11:24;;;;;;;5.40;4.20;;;;;;;;;;4974741;28;20429;-50
2022/04/20 06:13:50;;;;;;;7.90;4.50;;;;;;;;;;4969821;28;20454;-50
2022/04/20 06:16:17;;;;;;;4.60;3.70;;;;;;;;;;4946372;28;21629;-50
2022/04/20 06:18:44;;;;;;;4.10;3.33;;;;;;;;;;4979531;28;20441;-52
2022/04/20 06:21:22;;;;;;;10.87;4.50;;;;;;;;;;4984037;28;20524;-50
2022/04/20 06:23:49;;;;;;;4.90;3.47;;;;;;;;;;4992731;28;20493;-51
2022/04/20 06:26:19;;;;;;;4.43;3.80;;;;;;;;;;4963072;28;20504;-50
2022/04/20 06:28:45;;;;;;;7.17;3.57;;;;;;;;;;4980855;28;20452;-48
2022/04/20 06:31:21;;;;;;;5.17;3.53;;;;;;;;;;4976164;28;20433;-51
2022/04/20 06:33:48;;;;;;;6.50;3.90;;;;;;;;;;4981714;28;20441;-49
2022/04/20 06:36:43;;;;;;;6.03;3.83;;;;;;;;;;4973025;28;20567;-49
2022/04/20 06:39:13;;;;;;;4.40;3.87;;;;;;;;;;4974361;28;20437;-50
2022/04/20 06:41:39;;;;;;;5.93;3.57;;;;;;;;;;4968791;28;20863;-49
2022/04/20 06:44:05;;;;;;;4.30;3.60;;;;;;;;;;4972152;28;20970;-49
2022/04/20 06:46:31;;;;;;;6.47;4.17;;;;;;;;;;4963003;28;20428;-50
2022/04/20 06:48:57;;;;;;;6.13;3.47;;;;;;;;;;4960330;28;20636;-50
2022/04/20 06:58:31;;;;;;;5.27;3.60;;;;;;;;;;4969633;28;20444;-53
2022/04/20 06:59:44;;;;;;;4.13;3.40;;;;;;;;;;4951991;28;20456;-52
2022/04/20 07:02:10;;;;;;;4.13;3.50;;;;;;;;;;4980407;28;20440;-52
2022/04/20 07:04:35;;;;;;;4.57;3.67;;;;;;;;;;4960148;28;20495;-50
2022/04/20 07:07:01;;;;;;;7.30;4.00;;;;;;;;;;4978970;28;20444;-51
2022/04/20 07:09:27;;;;;;;3.30;3.00;;;;;;;;;;4946081;28;20833;-51
2022/04/20 07:11:53;;;;;;;5.43;4.07;;;;;;;;;;4976653;28;20843;-55
2022/04/20 07:14:19;;;;;;;3.60;3.30;;;;;;;;;;4959024;28;20444;-52
2022/04/20 07:16:45;;;;;;;3.20;2.90;;;;;;;;;;4986309;28;20477;-52
2022/04/20 07:19:11;;;;;;;5.30;3.60;;;;;;;;;;4960299;28;21156;-52
2022/04/20 07:21:39;;;;;;;3.80;3.23;;;;;;;;;;4983355;28;20268;-51
2022/04/20 07:24:05;;;;;;;9.93;3.87;;;;;;;;;;4983708;28;20441;-51
2022/04/20 07:26:31;;;;;;;5.97;3.50;;;;;;;;;;4987427;28;20476;-52
2022/04/20 07:28:57;;;;;;;4.57;3.07;;;;;;;;;;4961822;28;20445;-51
2022/04/20 07:31:23;;;;;;;3.30;3.00;;;;;;;;;;4991161;28;21051;-52
2022/04/20 07:33:49;;;;;;;5.17;2.97;;;;;;;;;;4964454;28;20962;-52
2022/04/20 07:36:15;;;;;;;3.33;3.03;;;;;;;;;;4992646;28;20432;-52
2022/04/20 07:41:45;;;;;;;3.17;2.87;;;;;;;;;;4960993;28;20531;-52
2022/04/20 07:44:11;;;;;;;5.17;3.23;;;;;;;;;;4984084;28;20445;-52
2022/04/20 07:46:37;;;;;;;3.53;3.03;;;;;;;;;;4991416;28;20436;-53
2022/04/20 07:51:55;;;;;;;4.30;3.37;;;;;;;;;;4988986;28;20455;-53
2022/04/20 07:54:22;;;;;;;6.13;3.60;;;;;;;;;;4956458;28;20453;-51
2022/04/20 07:56:48;;;;;;;3.63;3.00;;;;;;;;;;4987354;28;20484;-51
2022/04/20 07:59:14;;;;;;;5.77;3.10;;;;;;;;;;4958966;28;21077;-53
2022/04/20 08:01:40;;;;;;;4.70;2.93;;;;;;;;;;4986221;28;20798;-54
2022/04/20 08:04:16;;;;;;;4.17;2.97;;;;;;;;;;4965574;28;21368;-53
2022/04/20 08:06:42;;;;;;;3.40;3.00;;;;;;;;;;4988161;28;20452;-51
2022/04/20 08:09:59;;;;;;;3.93;3.40;;;;;;;;;;4984967;28;20444;-56
2022/04/20 08:12:28;;;;;;;4.87;3.63;;;;;;;;;;4975479;28;20543;-52
2022/04/20 08:14:54;;;;;;;3.60;3.30;;;;;;;;;;4962702;28;21018;-51
2022/04/20 08:17:20;;;;;;;3.73;3.37;;;;;;;;;;4983978;28;20480;-54
2022/04/20 08:19:46;;;;;;;4.43;3.40;;;;;;;;;;4965478;28;20881;-53
2022/04/20 08:22:14;;;;;;;5.00;3.70;;;;;;;;;;4985025;28;20443;-54
2022/04/20 08:24:57;;;;;;;3.77;3.23;;;;;;;;;;4963656;28;20701;-52
2022/04/20 08:27:29;;;;;;;3.53;3.23;;;;;;;;;;4985132;28;20456;-53
2022/04/20 08:29:55;;;;;;;3.23;2.93;;;;;;;;;;4982318;28;20546;-54
2022/04/20 08:32:21;;;;;;;4.63;3.83;;;;;;;;;;4984126;28;20424;-53
2022/04/20 08:35:07;;;;;;;3.87;3.50;;;;;;;;;;4976351;28;20513;-52
2022/04/20 08:37:33;;;;;;;6.00;3.40;;;;;;;;;;4987248;28;20488;-51
2022/04/20 08:40:33;;;;;;;4.47;3.70;;;;;;;;;;4983057;28;20446;-52
2022/04/20 08:43:05;;;;;;;7.20;3.53;;;;;;;;;;4978966;28;20770;-53
2022/04/20 08:45:33;;;;;;;4.20;3.50;;;;;;;;;;4966439;28;20449;-53
2022/04/20 08:47:59;;;;;;;4.67;3.63;;;;;;;;;;4985630;28;20441;-52
2022/04/20 08:50:25;;;;;;;5.90;3.70;;;;;;;;;;4964700;28;20578;-52
2022/04/20 08:52:52;;;;;;;5.67;2.87;;;;;;;;;;4984366;28;20438;-52
2022/04/20 08:55:18;;;;;;;3.70;3.40;;;;;;;;;;4961992;28;20864;-51
2022/04/20 08:57:45;;;;;;;7.17;3.70;;;;;;;;;;4984108;28;20488;-51
2022/04/20 09:00:12;;;;;;;5.13;3.80;;;;;;;;;;4971195;28;20437;-51
2022/04/20 09:02:38;;;;;;;4.10;3.70;;;;;;;;;;5000656;28;20441;-52
2022/04/20 09:05:07;;;;;;;5.93;3.50;;;;;;;;;;4964203;28;20489;-54
2022/04/20 09:07:34;;;;;;;5.00;3.93;;;;;;;;;;4989596;28;21030;-52
2022/04/20 09:10:20;;;;;;;3.50;3.20;;;;;;;;;;4979747;28;20437;-54
2022/04/20 09:12:47;;;;;;;4.80;3.40;;;;;;;;;;4964307;28;20472;-53
2022/04/20 09:15:14;;;;;;;4.30;3.20;;;;;;;;;;4985659;28;20483;-53
2022/04/20 09:17:45;;;;;;;4.47;3.33;;;;;;;;;;4982072;28;20492;-52
2022/04/20 09:20:20;;;;;;;4.53;3.30;;;;;;;;;;4977745;28;20913;-52
2022/04/20 09:23:01;;;;;;;3.53;2.90;;;;;;;;;;4964801;28;20457;-52
2022/04/20 09:25:41;;;;;;;3.10;2.80;;;;;;;;;;4980700;28;20460;-58
2022/04/20 09:28:09;;;;;;;8.00;3.33;;;;;;;;;;4967585;28;20567;-53
2022/04/20 09:31:04;;;;;;;4.13;3.07;;;;;;;;;;4983868;28;20703;-57
2022/04/20 09:33:43;;;;;;;3.83;2.97;;;;;;;;;;4981924;28;21038;-52
2022/04/20 09:36:18;;;;;;;4.17;2.70;;;;;;;;;;4971404;28;20472;-54
2022/04/20 09:39:00;;;;;;;5.10;3.80;;;;;;;;;;4985736;28;20464;-53
2022/04/20 09:41:58;;;;;;;3.27;2.80;;;;;;;;;;4975092;28;20571;-53
2022/04/20 09:44:25;;;;;;;3.40;3.10;;;;;;;;;;4983795;28;20441;-54
2022/04/20 09:49:37;;;;;;;4.43;3.57;;;;;;;;;;4988629;28;20531;-52
2022/04/20 09:52:10;;;;;;;5.43;2.50;;;;;;;;;;4961667;28;20445;-52
2022/04/20 09:54:37;;;;;;;3.63;2.60;;;;;;;;;;4987545;28;20769;-51
2022/04/20 09:57:10;;;;;;;4.87;3.07;;;;;;;;;;4961616;28;20515;-53
2022/04/20 09:59:36;;;;;;;5.20;3.30;;;;;;;;;;4985483;28;20441;-53
2022/04/20 10:02:10;;;;;;;2.53;2.33;;;;;;;;;;4975811;28;20464;-53
2022/04/20 10:04:37;;;;;;;3.00;2.03;;;;;;;;;;4988295;28;21029;-52
2022/04/20 10:07:03;;;;;;;2.77;2.40;;;;;;;;;;4980262;28;20453;-53
2022/04/20 10:09:29;;;;;;;3.30;2.63;;;;;;;;;;4980047;28;20566;-54
2022/04/20 10:17:44;;;;;;;3.40;2.80;;;;;;;;;;4983017;28;20601;-51
2022/04/20 10:20:11;;;;;;;4.00;2.80;;;;;;;;;;4986827;28;20437;-52
2022/04/20 10:22:37;;;;;;;4.43;2.57;;;;;;;;;;4962154;28;20457;-52
2022/04/20 10:25:04;;;;;;;3.13;2.50;;;;;;;;;;4985694;28;20867;-52
2022/04/20 10:27:33;;;;;;;3.20;2.33;;;;;;;;;;4955606;28;20477;-53
2022/04/20 10:30:00;;;;;;;4.40;2.80;;;;;;;;;;4985913;28;20450;-53
2022/04/20 10:32:27;;;;;;;3.80;3.10;;;;;;;;;;4980547;28;20448;-53
2022/04/20 10:34:53;;;;;;;3.40;2.87;;;;;;;;;;4985401;28;20508;-52
2022/04/20 10:37:25;;;;;;;2.93;2.07;;;;;;;;;;4981039;28;20854;-52
2022/04/20 10:39:53;;;;;;;3.33;2.97;;;;;;;;;;4982516;28;20436;-52
2022/04/20 10:45:23;;;;;;;3.83;3.00;;;;;;;;;;4979314;28;21035;-52
2022/04/20 10:47:50;;;;;;;5.60;2.83;;;;;;;;;;4973977;28;20812;-53
2022/04/20 10:50:25;;;;;;;3.23;2.60;;;;;;;;;;4983201;28;20437;-53
2022/04/20 10:53:02;;;;;;;3.43;3.13;;;;;;;;;;4957637;28;20962;-52
2022/04/20 10:55:32;;;;;;;4.20;3.00;;;;;;;;;;4974679;28;20460;-52
2022/04/20 10:57:58;;;;;;;3.97;2.70;;;;;;;;;;4953787;28;20476;-53
2022/04/20 11:00:25;;;;;;;3.47;2.50;;;;;;;;;;4981448;28;20492;-54
2022/04/20 11:02:55;;;;;;;6.70;2.80;;;;;;;;;;4953470;28;20648;-53
2022/04/20 11:05:21;;;;;;;3.50;2.80;;;;;;;;;;4982977;28;20630;-52
2022/04/20 11:08:06;;;;;;;4.40;2.90;;;;;;;;;;4958674;28;20484;-53
2022/04/20 11:10:34;;;;;;;3.07;2.20;;;;;;;;;;4982621;28;20890;-53
2022/04/20 11:19:05;;;;;;;2.80;2.23;;;;;;;;;;4970778;28;20467;-52
2022/04/20 11:21:31;;;;;;;5.80;1.90;;;;;;;;;;4971982;28;20460;-51
2022/04/20 11:24:07;;;;;;;2.80;2.50;;;;;;;;;;4950531;28;20456;-52
2022/04/20 11:26:33;;;;;;;2.57;2.27;;;;;;;;;;4977189;28;21040;-52
2022/04/20 11:29:17;;;;;;;4.43;2.87;;;;;;;;;;4974677;28;20526;-51
2022/04/20 11:31:43;;;;;;;3.77;2.50;;;;;;;;;;4983926;28;20447;-53
2022/04/20 11:34:10;;;;;;;6.53;2.83;;;;;;;;;;4979162;28;20589;-55
2022/04/20 11:36:42;;;;;;;2.90;2.60;;;;;;;;;;4983216;28;20522;-52
2022/04/20 11:39:09;;;;;;;3.40;2.77;;;;;;;;;;4970036;28;20433;-53
2022/04/20 11:41:35;;;;;;;5.97;2.67;;;;;;;;;;4976645;28;20449;-51
2022/04/20 11:44:25;;;;;;;3.20;2.53;;;;;;;;;;4972904;28;20725;-51
2022/04/20 11:46:52;;;;;;;3.07;2.77;;;;;;;;;;4981993;28;20536;-51
2022/04/20 11:49:18;;;;;;;3.53;3.23;;;;;;;;;;4971187;28;20863;-53
2022/04/20 11:51:47;;;;;;;4.30;2.73;;;;;;;;;;4981811;28;20460;-52
2022/04/20 11:54:24;;;;;;;3.23;2.67;;;;;;;;;;4953305;28;20491;-56
2022/04/20 11:56:50;;;;;;;5.87;3.80;;;;;;;;;;4985242;28;20471;-51
2022/04/20 11:59:17;;;;;;;3.93;2.47;;;;;;;;;;4962214;28;20448;-54
2022/04/20 12:01:44;;;;;;;4.70;3.53;;;;;;;;;;4983301;28;20446;-53
2022/04/20 12:04:13;;;;;;;3.63;2.87;;;;;;;;;;4955168;28;20801;-52
2022/04/20 12:06:55;;;;;;;4.37;3.43;;;;;;;;;;5001863;28;20557;-52
2022/04/20 12:09:22;;;;;;;3.83;3.43;;;;;;;;;;4962660;28;20433;-52
2022/04/20 12:11:58;;;;;;;3.50;3.20;;;;;;;;;;4975508;28;20444;-52
2022/04/20 12:14:27;;;;;;;5.33;3.73;;;;;;;;;;4983621;28;20432;-53
2022/04/20 12:16:55;;;;;;;4.00;3.70;;;;;;;;;;4988769;28;20515;-52
2022/04/20 12:19:22;;;;;;;4.00;3.57;;;;;;;;;;4948929;28;24166;-52
2022/04/20 12:21:48;;;;;;;4.63;3.43;;;;;;;;;;4988741;28;20447;-55
2022/04/20 12:24:18;;;;;;;4.50;3.10;;;;;;;;;;4961873;28;20518;-52
2022/04/20 12:26:44;;;;;;;3.70;3.40;;;;;;;;;;4987798;28;20471;-51
2022/04/20 12:29:11;;;;;;;3.93;3.57;;;;;;;;;;4957760;28;20449;-52
2022/04/20 12:31:41;;;;;;;4.97;4.00;;;;;;;;;;4989949;28;20444;-53
2022/04/20 12:34:08;;;;;;;6.77;4.50;;;;;;;;;;4955921;28;21203;-56
2022/04/20 12:36:50;;;;;;;3.37;3.07;;;;;;;;;;4987352;28;20531;-52
2022/04/20 12:39:24;;;;;;;3.83;3.43;;;;;;;;;;4983159;28;20498;-52
2022/04/20 12:41:52;;;;;;;3.27;2.97;;;;;;;;;;4989345;28;20541;-52
2022/04/20 12:44:37;;;;;;;4.90;4.23;;;;;;;;;;4960583;28;20460;-51
2022/04/20 12:47:11;;;;;;;4.20;3.50;;;;;;;;;;4986252;28;20794;-53
2022/04/20 12:49:38;;;;;;;3.63;3.33;;;;;;;;;;4943778;28;20440;-52
2022/04/20 12:52:10;;;;;;;5.40;3.37;;;;;;;;;;4986164;28;20437;-53
2022/04/20 12:54:36;;;;;;;3.50;3.10;;;;;;;;;;4979949;28;20972;-52
2022/04/20 13:02:32;;;;;;;4.53;2.50;;;;;;;;;;4986004;28;20445;-52
2022/04/20 13:04:58;;;;;;;6.13;3.07;;;;;;;;;;4955783;28;21028;-52
2022/04/20 13:07:24;;;;;;;4.20;3.30;;;;;;;;;;4986467;28;20453;-52
2022/04/20 13:09:50;;;;;;;4.10;3.40;;;;;;;;;;4984965;28;20448;-52
2022/04/20 13:12:16;;;;;;;3.63;2.97;;;;;;;;;;4981233;28;20427;-52
2022/04/20 13:14:42;;;;;;;4.03;3.63;;;;;;;;;;4954780;28;20193;-52
2022/04/20 13:17:09;;;;;;;3.20;2.90;;;;;;;;;;4955931;28;20479;-52
2022/04/20 13:19:37;;;;;;;5.23;3.33;;;;;;;;;;4985722;28;20441;-52
2022/04/20 13:22:04;;;;;;;4.43;3.63;;;;;;;;;;4935167;28;20440;-53
2022/04/20 13:30:00;;;;;;;3.67;3.30;;;;;;;;;;4987787;28;20447;-52
2022/04/20 13:32:26;;;;;;;3.93;3.10;;;;;;;;;;4958974;28;20442;-52
2022/04/20 13:34:52;;;;;;;5.70;3.57;;;;;;;;;;4984476;28;20449;-51
2022/04/20 13:37:18;;;;;;;4.90;3.40;;;;;;;;;;4948589;28;20492;-52
2022/04/20 13:39:44;;;;;;;4.60;3.20;;;;;;;;;;4975441;28;20534;-52
2022/04/20 13:42:10;;;;;;;3.23;2.93;;;;;;;;;;4981262;28;20452;-52
2022/04/20 13:44:37;;;;;;;4.07;3.50;;;;;;;;;;4983623;28;20442;-52
2022/04/20 13:47:03;;;;;;;4.17;3.20;;;;;;;;;;4973917;28;20457;-53
2022/04/20 13:49:29;;;;;;;3.60;3.30;;;;;;;;;;4980801;28;20503;-51
2022/04/20 13:51:55;;;;;;;5.30;3.20;;;;;;;;;;4934417;28;20441;-53
2022/04/20 13:54:21;;;;;;;5.53;3.50;;;;;;;;;;4977861;28;20194;-53
2022/04/20 13:56:50;;;;;;;4.50;3.20;;;;;;;;;;4981327;28;21471;-51
2022/04/20 13:59:16;;;;;;;3.20;2.87;;;;;;;;;;4976042;28;20448;-52
2022/04/20 14:01:43;;;;;;;3.73;3.43;;;;;;;;;;4972782;28;20683;-53
2022/04/20 14:04:09;;;;;;;3.90;3.47;;;;;;;;;;4953201;28;21277;-52
2022/04/20 14:06:35;;;;;;;3.97;3.10;;;;;;;;;;4978409;28;20453;-51
2022/04/20 14:09:03;;;;;;;4.80;2.83;;;;;;;;;;4936222;28;20445;-51
2022/04/20 14:11:29;;;;;;;3.60;2.87;;;;;;;;;;4976425;28;20448;-52
2022/04/20 14:13:55;;;;;;;2.73;2.53;;;;;;;;;;4953576;28;20448;-52
2022/04/20 14:16:23;;;;;;;3.87;2.67;;;;;;;;;;4981049;28;20495;-52
2022/04/20 14:18:49;;;;;;;6.40;3.00;;;;;;;;;;4973071;28;20895;-51
2022/04/20 14:21:16;;;;;;;4.40;2.80;;;;;;;;;;4974046;28;20947;-52
2022/04/20 14:23:42;;;;;;;3.20;2.90;;;;;;;;;;4934824;28;20498;-52
2022/04/20 14:34:23;;;;;;;3.93;3.13;;;;;;;;;;4957134;28;20493;-53
2022/04/20 14:36:49;;;;;;;2.87;2.57;;;;;;;;;;4984279;28;20505;-52
2022/04/20 14:39:15;;;;;;;2.87;2.53;;;;;;;;;;4970810;28;20997;-55
2022/04/20 14:41:41;;;;;;;4.57;2.57;;;;;;;;;;4983444;28;20456;-52
2022/04/20 14:44:07;;;;;;;6.40;2.90;;;;;;;;;;4953364;28;21747;-51
2022/04/20 14:46:33;;;;;;;4.87;4.00;;;;;;;;;;4989238;28;20448;-53
2022/04/20 14:49:00;;;;;;;3.27;2.80;;;;;;;;;;4984321;28;20193;-51
2022/04/20 14:51:26;;;;;;;3.40;2.37;;;;;;;;;;4986831;28;20737;-51
2022/04/20 14:53:52;;;;;;;6.00;2.50;;;;;;;;;;4962749;28;20453;-52
2022/04/20 14:56:18;;;;;;;4.80;4.20;;;;;;;;;;4985302;28;20551;-52
2022/04/20 14:58:44;;;;;;;3.03;2.70;;;;;;;;;;4984961;28;21277;-52
2022/04/20 15:01:10;;;;;;;8.63;2.90;;;;;;;;;;4980930;28;20544;-51
2022/04/20 15:03:36;;;;;;;3.27;2.93;;;;;;;;;;4975493;28;20482;-52
2022/04/20 15:06:03;;;;;;;3.37;2.77;;;;;;;;;;4968320;28;21280;-53
2022/04/20 15:08:47;;;;;;;4.83;3.07;;;;;;;;;;4982939;28;20529;-52
2022/04/20 15:11:30;;;;;;;4.80;3.50;;;;;;;;;;4963370;28;20819;-52
2022/04/20 15:13:57;;;;;;;3.70;2.50;;;;;;;;;;4977884;28;20516;-53
2022/04/20 15:16:24;;;;;;;3.63;2.90;;;;;;;;;;4969084;28;20446;-51
2022/04/20 15:18:50;;;;;;;5.17;2.90;;;;;;;;;;4965643;28;20546;-52
2022/04/20 15:21:17;;;;;;;3.77;2.40;;;;;;;;;;4969666;28;20806;-52
2022/04/20 15:23:43;;;;;;;6.63;2.47;;;;;;;;;;4967193;28;20437;-51
2022/04/20 15:29:14;;;;;;;3.70;2.80;;;;;;;;;;4949023;28;20464;-52
2022/04/20 15:31:40;;;;;;;4.50;3.00;;;;;;;;;;4982138;28;20440;-51
2022/04/20 15:34:06;;;;;;;3.00;2.53;;;;;;;;;;4984290;28;21300;-51
2022/04/20 15:36:36;;;;;;;4.43;2.90;;;;;;;;;;4986030;28;20424;-51
2022/04/20 15:39:08;;;;;;;2.90;2.60;;;;;;;;;;4955409;28;20464;-52
2022/04/20 15:41:34;;;;;;;3.50;2.70;;;;;;;;;;4981555;28;20527;-52
2022/04/20 15:44:01;;;;;;;4.30;3.50;;;;;;;;;;4951832;28;20511;-51
2022/04/20 15:46:27;;;;;;;3.10;2.80;;;;;;;;;;4976886;28;21643;-51
2022/04/20 15:48:53;;;;;;;3.20;2.73;;;;;;;;;;4983806;28;21114;-51
2022/04/20 15:51:19;;;;;;;3.43;2.50;;;;;;;;;;4985680;28;20475;-51
2022/04/20 15:53:46;;;;;;;4.60;2.93;;;;;;;;;;4958858;28;21150;-52
2022/04/20 16:01:58;;;;;;;3.70;3.17;;;;;;;;;;4987638;28;21044;-50
2022/04/20 16:04:32;;;;;;;4.87;3.37;;;;;;;;;;4981492;28;20445;-52